sensor_id;sensor_type;location;lat;lon;timestamp;P1;durP1;ratioP1;P2;durP2;ratioP2
76377;SDS011;65200;49.500;8.654;2022-12-18T00:01:57;45.38;;;21.63;;
76377;SDS011;65200;49.500;8.654;2022-12-18T00:04:25;33.03;;;16.10;;
76377;SDS011;65200;49.500;8.654;2022-12-18T00:06:52;36.22;;;19.13;;
76377;SDS011;65200;49.500;8.654;2022-12-18T00:09:19;38.67;;;17.15;;
76377;SDS011;65200;49.500;8.654;2022-12-18T00:11:47;33.00;;;17.25;;
76377;SDS011;65200;49.500;8.654;2022-12-18T00:14:13;41.45;;;18.50;;
76377;SDS011;65200;49.500;8.654;2022-12-18T00:16:42;32.33;;;16.52;;
76377;SDS011;65200;49.500;8.654;2022-12-18T00:19:09;32.97;;;17.75;;
76377;SDS011;65200;49.500;8.654;2022-12-18T00:21:36;37.15;;;18.73;;
76377;SDS011;65200;49.500;8.654;2022-12-18T00:24:06;44.08;;;18.15;;
76377;SDS011;65200;49.500;8.654;2022-12-18T00:26:33;39.15;;;22.77;;
76377;SDS011;65200;49.500;8.654;2022-12-18T00:29:04;45.92;;;16.85;;
76377;SDS011;65200;49.500;8.654;2022-12-18T00:31:32;35.88;;;19.70;;
76377;SDS011;65200;49.500;8.654;2022-12-18T00:33:59;38.75;;;19.42;;
76377;SDS011;65200;49.500;8.654;2022-12-18T00:36:27;33.13;;;15.95;;
76377;SDS011;65200;49.500;8.654;2022-12-18T00:38:54;21.45;;;11.43;;
76377;SDS011;65200;49.500;8.654;2022-12-18T00:41:22;21.00;;;9.98;;
76377;SDS011;65200;49.500;8.654;2022-12-18T00:44:09;36.97;;;19.40;;
76377;SDS011;65200;49.500;8.654;2022-12-18T00:46:37;17.30;;;11.63;;
76377;SDS011;65200;49.500;8.654;2022-12-18T00:49:04;39.25;;;18.55;;
76377;SDS011;65200;49.500;8.654;2022-12-18T00:51:31;38.75;;;16.48;;
76377;SDS011;65200;49.500;8.654;2022-12-18T00:53:57;26.58;;;14.88;;
76377;SDS011;65200;49.500;8.654;2022-12-18T00:56:24;36.20;;;17.25;;
76377;SDS011;65200;49.500;8.654;2022-12-18T00:58:51;37.40;;;21.75;;
76377;SDS011;65200;49.500;8.654;2022-12-18T01:01:18;20.75;;;13.13;;
76377;SDS011;65200;49.500;8.654;2022-12-18T01:03:45;28.83;;;16.92;;
76377;SDS011;65200;49.500;8.654;2022-12-18T01:06:12;24.35;;;14.50;;
76377;SDS011;65200;49.500;8.654;2022-12-18T01:08:40;28.90;;;13.70;;
76377;SDS011;65200;49.500;8.654;2022-12-18T01:11:07;26.83;;;16.65;;
76377;SDS011;65200;49.500;8.654;2022-12-18T01:13:34;28.33;;;16.40;;
76377;SDS011;65200;49.500;8.654;2022-12-18T01:16:01;23.48;;;13.40;;
76377;SDS011;65200;49.500;8.654;2022-12-18T01:18:29;42.00;;;19.50;;
76377;SDS011;65200;49.500;8.654;2022-12-18T01:20:55;34.03;;;15.93;;
76377;SDS011;65200;49.500;8.654;2022-12-18T01:23:22;30.23;;;16.60;;
76377;SDS011;65200;49.500;8.654;2022-12-18T01:25:48;33.33;;;17.05;;
76377;SDS011;65200;49.500;8.654;2022-12-18T01:28:15;33.20;;;20.02;;
76377;SDS011;65200;49.500;8.654;2022-12-18T01:30:41;36.88;;;19.40;;
76377;SDS011;65200;49.500;8.654;2022-12-18T01:33:07;32.90;;;16.92;;
76377;SDS011;65200;49.500;8.654;2022-12-18T01:35:41;26.38;;;15.52;;
76377;SDS011;65200;49.500;8.654;2022-12-18T01:38:07;33.13;;;15.93;;
76377;SDS011;65200;49.500;8.654;2022-12-18T01:40:34;29.52;;;15.70;;
76377;SDS011;65200;49.500;8.654;2022-12-18T01:43:01;37.45;;;19.52;;
76377;SDS011;65200;49.500;8.654;2022-12-18T01:45:28;39.78;;;20.58;;
76377;SDS011;65200;49.500;8.654;2022-12-18T01:47:57;35.95;;;18.70;;
76377;SDS011;65200;49.500;8.654;2022-12-18T01:50:27;36.90;;;18.52;;
76377;SDS011;65200;49.500;8.654;2022-12-18T01:52:58;42.83;;;19.00;;
76377;SDS011;65200;49.500;8.654;2022-12-18T01:55:28;38.15;;;20.42;;
76377;SDS011;65200;49.500;8.654;2022-12-18T01:57:57;44.95;;;22.73;;
76377;SDS011;65200;49.500;8.654;2022-12-18T02:00:26;38.38;;;22.45;;
76377;SDS011;65200;49.500;8.654;2022-12-18T02:02:53;32.85;;;16.95;;
76377;SDS011;65200;49.500;8.654;2022-12-18T02:05:22;34.65;;;17.08;;
76377;SDS011;65200;49.500;8.654;2022-12-18T02:07:58;29.77;;;17.52;;
76377;SDS011;65200;49.500;8.654;2022-12-18T02:10:33;30.23;;;17.80;;
76377;SDS011;65200;49.500;8.654;2022-12-18T02:13:07;34.83;;;17.10;;
76377;SDS011;65200;49.500;8.654;2022-12-18T02:15:39;33.88;;;18.90;;
76377;SDS011;65200;49.500;8.654;2022-12-18T02:18:10;41.38;;;20.98;;
76377;SDS011;65200;49.500;8.654;2022-12-18T02:20:42;33.65;;;20.90;;
76377;SDS011;65200;49.500;8.654;2022-12-18T02:23:16;32.22;;;18.05;;
76377;SDS011;65200;49.500;8.654;2022-12-18T02:26:04;37.05;;;16.73;;
76377;SDS011;65200;49.500;8.654;2022-12-18T02:28:38;35.55;;;16.23;;
76377;SDS011;65200;49.500;8.654;2022-12-18T02:31:08;42.33;;;20.77;;
76377;SDS011;65200;49.500;8.654;2022-12-18T02:33:37;29.88;;;15.98;;
76377;SDS011;65200;49.500;8.654;2022-12-18T02:36:06;33.17;;;20.73;;
76377;SDS011;65200;49.500;8.654;2022-12-18T02:41:03;25.95;;;15.00;;
76377;SDS011;65200;49.500;8.654;2022-12-18T02:43:31;28.77;;;14.77;;
76377;SDS011;65200;49.500;8.654;2022-12-18T02:45:58;34.83;;;15.73;;
76377;SDS011;65200;49.500;8.654;2022-12-18T02:48:27;31.30;;;16.42;;
76377;SDS011;65200;49.500;8.654;2022-12-18T02:50:58;24.08;;;13.02;;
76377;SDS011;65200;49.500;8.654;2022-12-18T02:53:31;33.97;;;17.58;;
76377;SDS011;65200;49.500;8.654;2022-12-18T02:56:05;29.60;;;15.55;;
76377;SDS011;65200;49.500;8.654;2022-12-18T02:58:38;34.25;;;18.38;;
76377;SDS011;65200;49.500;8.654;2022-12-18T03:01:14;32.75;;;16.75;;
76377;SDS011;65200;49.500;8.654;2022-12-18T03:03:46;30.42;;;18.23;;
76377;SDS011;65200;49.500;8.654;2022-12-18T03:06:19;31.67;;;18.30;;
76377;SDS011;65200;49.500;8.654;2022-12-18T03:08:50;35.67;;;18.73;;
76377;SDS011;65200;49.500;8.654;2022-12-18T03:11:21;34.50;;;17.17;;
76377;SDS011;65200;49.500;8.654;2022-12-18T03:14:08;37.80;;;20.73;;
76377;SDS011;65200;49.500;8.654;2022-12-18T03:19:07;21.58;;;13.70;;
76377;SDS011;65200;49.500;8.654;2022-12-18T03:21:39;29.55;;;17.13;;
76377;SDS011;65200;49.500;8.654;2022-12-18T03:24:11;31.10;;;15.50;;
76377;SDS011;65200;49.500;8.654;2022-12-18T03:26:40;35.47;;;19.10;;
76377;SDS011;65200;49.500;8.654;2022-12-18T03:29:11;30.23;;;16.52;;
76377;SDS011;65200;49.500;8.654;2022-12-18T03:31:41;36.83;;;16.98;;
76377;SDS011;65200;49.500;8.654;2022-12-18T03:34:15;31.13;;;15.07;;
76377;SDS011;65200;49.500;8.654;2022-12-18T03:36:48;24.33;;;14.93;;
76377;SDS011;65200;49.500;8.654;2022-12-18T03:39:14;33.50;;;15.50;;
76377;SDS011;65200;49.500;8.654;2022-12-18T03:41:43;34.40;;;19.02;;
76377;SDS011;65200;49.500;8.654;2022-12-18T03:44:11;34.70;;;18.35;;
76377;SDS011;65200;49.500;8.654;2022-12-18T03:46:41;29.17;;;17.65;;
76377;SDS011;65200;49.500;8.654;2022-12-18T03:49:17;32.03;;;16.38;;
76377;SDS011;65200;49.500;8.654;2022-12-18T03:51:50;32.10;;;15.25;;
76377;SDS011;65200;49.500;8.654;2022-12-18T03:54:22;34.72;;;17.42;;
76377;SDS011;65200;49.500;8.654;2022-12-18T03:59:22;27.38;;;15.88;;
76377;SDS011;65200;49.500;8.654;2022-12-18T04:01:51;40.42;;;17.48;;
76377;SDS011;65200;49.500;8.654;2022-12-18T04:04:19;37.00;;;18.20;;
76377;SDS011;65200;49.500;8.654;2022-12-18T04:06:48;34.42;;;17.45;;
76377;SDS011;65200;49.500;8.654;2022-12-18T04:09:15;32.78;;;16.00;;
76377;SDS011;65200;49.500;8.654;2022-12-18T04:11:42;28.52;;;16.00;;
76377;SDS011;65200;49.500;8.654;2022-12-18T04:14:11;34.72;;;17.10;;
76377;SDS011;65200;49.500;8.654;2022-12-18T04:16:37;22.60;;;13.70;;
76377;SDS011;65200;49.500;8.654;2022-12-18T04:19:04;34.55;;;16.65;;
76377;SDS011;65200;49.500;8.654;2022-12-18T04:21:30;36.72;;;18.60;;
76377;SDS011;65200;49.500;8.654;2022-12-18T04:23:57;32.75;;;17.20;;
76377;SDS011;65200;49.500;8.654;2022-12-18T04:26:23;32.33;;;17.77;;
76377;SDS011;65200;49.500;8.654;2022-12-18T04:28:50;30.70;;;18.85;;
76377;SDS011;65200;49.500;8.654;2022-12-18T04:31:17;33.95;;;17.35;;
76377;SDS011;65200;49.500;8.654;2022-12-18T04:33:44;33.40;;;16.25;;
76377;SDS011;65200;49.500;8.654;2022-12-18T04:36:11;28.92;;;15.80;;
76377;SDS011;65200;49.500;8.654;2022-12-18T04:38:38;30.98;;;18.58;;
76377;SDS011;65200;49.500;8.654;2022-12-18T04:41:04;25.70;;;16.13;;
76377;SDS011;65200;49.500;8.654;2022-12-18T04:43:30;28.55;;;16.17;;
76377;SDS011;65200;49.500;8.654;2022-12-18T04:46:01;27.25;;;16.13;;
76377;SDS011;65200;49.500;8.654;2022-12-18T04:48:29;29.45;;;15.50;;
76377;SDS011;65200;49.500;8.654;2022-12-18T04:50:56;35.25;;;16.10;;
76377;SDS011;65200;49.500;8.654;2022-12-18T04:53:22;31.15;;;18.02;;
76377;SDS011;65200;49.500;8.654;2022-12-18T04:55:49;39.40;;;17.35;;
76377;SDS011;65200;49.500;8.654;2022-12-18T04:58:15;33.65;;;15.88;;
76377;SDS011;65200;49.500;8.654;2022-12-18T05:00:41;40.88;;;17.77;;
76377;SDS011;65200;49.500;8.654;2022-12-18T05:03:08;37.42;;;18.42;;
76377;SDS011;65200;49.500;8.654;2022-12-18T05:05:36;32.47;;;16.85;;
76377;SDS011;65200;49.500;8.654;2022-12-18T05:08:02;30.50;;;13.98;;
76377;SDS011;65200;49.500;8.654;2022-12-18T05:10:29;31.38;;;18.35;;
76377;SDS011;65200;49.500;8.654;2022-12-18T05:12:55;28.40;;;14.75;;
76377;SDS011;65200;49.500;8.654;2022-12-18T05:15:26;30.02;;;13.95;;
76377;SDS011;65200;49.500;8.654;2022-12-18T05:17:53;23.15;;;14.82;;
76377;SDS011;65200;49.500;8.654;2022-12-18T05:20:20;30.70;;;15.43;;
76377;SDS011;65200;49.500;8.654;2022-12-18T05:22:47;22.80;;;14.70;;
76377;SDS011;65200;49.500;8.654;2022-12-18T05:25:14;31.73;;;17.90;;
76377;SDS011;65200;49.500;8.654;2022-12-18T05:27:41;44.78;;;14.23;;
76377;SDS011;65200;49.500;8.654;2022-12-18T05:30:08;24.30;;;12.18;;
76377;SDS011;65200;49.500;8.654;2022-12-18T05:32:35;21.52;;;13.27;;
76377;SDS011;65200;49.500;8.654;2022-12-18T05:35:01;19.55;;;13.70;;
76377;SDS011;65200;49.500;8.654;2022-12-18T05:37:28;31.30;;;13.23;;
76377;SDS011;65200;49.500;8.654;2022-12-18T05:39:56;28.35;;;17.45;;
76377;SDS011;65200;49.500;8.654;2022-12-18T05:42:22;31.58;;;16.00;;
76377;SDS011;65200;49.500;8.654;2022-12-18T05:44:48;32.28;;;18.00;;
76377;SDS011;65200;49.500;8.654;2022-12-18T05:47:15;29.77;;;16.40;;
76377;SDS011;65200;49.500;8.654;2022-12-18T05:49:41;37.40;;;18.73;;
76377;SDS011;65200;49.500;8.654;2022-12-18T05:52:08;36.70;;;16.60;;
76377;SDS011;65200;49.500;8.654;2022-12-18T05:54:34;26.13;;;15.02;;
76377;SDS011;65200;49.500;8.654;2022-12-18T05:57:02;32.53;;;15.48;;
76377;SDS011;65200;49.500;8.654;2022-12-18T05:59:29;32.80;;;16.73;;
76377;SDS011;65200;49.500;8.654;2022-12-18T06:01:55;40.25;;;15.68;;
76377;SDS011;65200;49.500;8.654;2022-12-18T06:04:21;33.50;;;16.05;;
76377;SDS011;65200;49.500;8.654;2022-12-18T06:06:48;39.83;;;18.23;;
76377;SDS011;65200;49.500;8.654;2022-12-18T06:09:14;30.65;;;17.42;;
76377;SDS011;65200;49.500;8.654;2022-12-18T06:11:41;33.53;;;17.70;;
76377;SDS011;65200;49.500;8.654;2022-12-18T06:14:09;28.42;;;15.23;;
76377;SDS011;65200;49.500;8.654;2022-12-18T06:16:36;32.92;;;15.95;;
76377;SDS011;65200;49.500;8.654;2022-12-18T06:19:03;34.22;;;16.15;;
76377;SDS011;65200;49.500;8.654;2022-12-18T06:21:31;37.13;;;16.17;;
76377;SDS011;65200;49.500;8.654;2022-12-18T06:23:59;39.20;;;17.63;;
76377;SDS011;65200;49.500;8.654;2022-12-18T06:26:25;34.85;;;16.83;;
76377;SDS011;65200;49.500;8.654;2022-12-18T06:28:52;26.83;;;18.27;;
76377;SDS011;65200;49.500;8.654;2022-12-18T06:31:20;35.35;;;14.20;;
76377;SDS011;65200;49.500;8.654;2022-12-18T06:33:46;32.85;;;16.23;;
76377;SDS011;65200;49.500;8.654;2022-12-18T06:36:13;22.55;;;11.30;;
76377;SDS011;65200;49.500;8.654;2022-12-18T06:38:41;35.28;;;15.05;;
76377;SDS011;65200;49.500;8.654;2022-12-18T06:41:08;32.25;;;16.48;;
76377;SDS011;65200;49.500;8.654;2022-12-18T06:43:35;29.10;;;18.45;;
76377;SDS011;65200;49.500;8.654;2022-12-18T06:46:02;27.27;;;13.85;;
76377;SDS011;65200;49.500;8.654;2022-12-18T06:48:31;27.00;;;15.80;;
76377;SDS011;65200;49.500;8.654;2022-12-18T06:50:58;34.13;;;17.27;;
76377;SDS011;65200;49.500;8.654;2022-12-18T06:53:24;34.80;;;17.88;;
76377;SDS011;65200;49.500;8.654;2022-12-18T06:55:51;33.58;;;16.25;;
76377;SDS011;65200;49.500;8.654;2022-12-18T06:58:18;15.90;;;11.30;;
76377;SDS011;65200;49.500;8.654;2022-12-18T07:00:44;31.98;;;17.05;;
76377;SDS011;65200;49.500;8.654;2022-12-18T07:03:11;37.58;;;17.27;;
76377;SDS011;65200;49.500;8.654;2022-12-18T07:05:40;31.92;;;14.65;;
76377;SDS011;65200;49.500;8.654;2022-12-18T07:08:07;28.70;;;11.57;;
76377;SDS011;65200;49.500;8.654;2022-12-18T07:10:39;21.85;;;12.45;;
76377;SDS011;65200;49.500;8.654;2022-12-18T07:13:07;22.83;;;13.10;;
76377;SDS011;65200;49.500;8.654;2022-12-18T07:15:33;17.27;;;10.43;;
76377;SDS011;65200;49.500;8.654;2022-12-18T07:18:00;15.55;;;10.10;;
76377;SDS011;65200;49.500;8.654;2022-12-18T07:20:26;23.25;;;14.38;;
76377;SDS011;65200;49.500;8.654;2022-12-18T07:22:54;21.92;;;14.73;;
76377;SDS011;65200;49.500;8.654;2022-12-18T07:25:20;29.20;;;15.65;;
76377;SDS011;65200;49.500;8.654;2022-12-18T07:27:47;23.63;;;11.15;;
76377;SDS011;65200;49.500;8.654;2022-12-18T07:30:13;29.85;;;12.07;;
76377;SDS011;65200;49.500;8.654;2022-12-18T07:32:40;22.90;;;13.50;;
76377;SDS011;65200;49.500;8.654;2022-12-18T07:35:06;13.95;;;9.10;;
76377;SDS011;65200;49.500;8.654;2022-12-18T07:37:33;19.13;;;9.93;;
76377;SDS011;65200;49.500;8.654;2022-12-18T07:40:01;17.17;;;13.07;;
76377;SDS011;65200;49.500;8.654;2022-12-18T07:42:27;11.93;;;7.45;;
76377;SDS011;65200;49.500;8.654;2022-12-18T07:44:58;22.63;;;13.93;;
76377;SDS011;65200;49.500;8.654;2022-12-18T07:47:24;15.88;;;9.98;;
76377;SDS011;65200;49.500;8.654;2022-12-18T07:49:51;25.23;;;13.57;;
76377;SDS011;65200;49.500;8.654;2022-12-18T07:52:18;27.13;;;14.55;;
76377;SDS011;65200;49.500;8.654;2022-12-18T07:54:44;28.95;;;14.05;;
76377;SDS011;65200;49.500;8.654;2022-12-18T07:57:16;26.58;;;13.77;;
76377;SDS011;65200;49.500;8.654;2022-12-18T07:59:42;31.75;;;15.68;;
76377;SDS011;65200;49.500;8.654;2022-12-18T08:02:09;27.15;;;14.43;;
76377;SDS011;65200;49.500;8.654;2022-12-18T08:04:35;37.00;;;18.70;;
76377;SDS011;65200;49.500;8.654;2022-12-18T08:07:02;32.53;;;15.52;;
76377;SDS011;65200;49.500;8.654;2022-12-18T08:09:29;25.58;;;13.93;;
76377;SDS011;65200;49.500;8.654;2022-12-18T08:11:55;30.70;;;15.05;;
76377;SDS011;65200;49.500;8.654;2022-12-18T08:14:23;33.42;;;15.02;;
76377;SDS011;65200;49.500;8.654;2022-12-18T08:16:49;20.02;;;12.48;;
76377;SDS011;65200;49.500;8.654;2022-12-18T08:19:16;30.48;;;14.43;;
76377;SDS011;65200;49.500;8.654;2022-12-18T08:21:42;24.55;;;14.75;;
76377;SDS011;65200;49.500;8.654;2022-12-18T08:24:09;33.13;;;15.63;;
76377;SDS011;65200;49.500;8.654;2022-12-18T08:26:35;30.25;;;14.85;;
76377;SDS011;65200;49.500;8.654;2022-12-18T08:29:02;30.50;;;15.18;;
76377;SDS011;65200;49.500;8.654;2022-12-18T08:31:30;30.17;;;15.82;;
76377;SDS011;65200;49.500;8.654;2022-12-18T08:33:57;31.63;;;14.68;;
76377;SDS011;65200;49.500;8.654;2022-12-18T08:36:24;33.17;;;16.73;;
76377;SDS011;65200;49.500;8.654;2022-12-18T08:38:51;22.63;;;14.07;;
76377;SDS011;65200;49.500;8.654;2022-12-18T08:41:18;30.70;;;16.05;;
76377;SDS011;65200;49.500;8.654;2022-12-18T08:43:45;26.30;;;14.88;;
76377;SDS011;65200;49.500;8.654;2022-12-18T08:46:32;25.77;;;15.23;;
76377;SDS011;65200;49.500;8.654;2022-12-18T08:49:01;38.03;;;17.58;;
76377;SDS011;65200;49.500;8.654;2022-12-18T08:51:28;24.63;;;14.25;;
76377;SDS011;65200;49.500;8.654;2022-12-18T08:53:54;33.75;;;15.82;;
76377;SDS011;65200;49.500;8.654;2022-12-18T08:56:20;25.00;;;13.25;;
76377;SDS011;65200;49.500;8.654;2022-12-18T08:58:47;34.28;;;17.75;;
76377;SDS011;65200;49.500;8.654;2022-12-18T09:01:17;33.03;;;18.58;;
76377;SDS011;65200;49.500;8.654;2022-12-18T09:03:44;26.95;;;16.75;;
76377;SDS011;65200;49.500;8.654;2022-12-18T09:06:13;36.05;;;18.15;;
76377;SDS011;65200;49.500;8.654;2022-12-18T09:08:40;32.25;;;14.15;;
76377;SDS011;65200;49.500;8.654;2022-12-18T09:11:10;37.50;;;16.30;;
76377;SDS011;65200;49.500;8.654;2022-12-18T09:13:39;30.08;;;16.20;;
76377;SDS011;65200;49.500;8.654;2022-12-18T09:16:06;20.67;;;12.18;;
76377;SDS011;65200;49.500;8.654;2022-12-18T09:18:32;16.77;;;9.93;;
76377;SDS011;65200;49.500;8.654;2022-12-18T09:21:06;30.30;;;16.98;;
76377;SDS011;65200;49.500;8.654;2022-12-18T09:23:33;21.58;;;14.68;;
76377;SDS011;65200;49.500;8.654;2022-12-18T09:26:00;22.83;;;13.48;;
76377;SDS011;65200;49.500;8.654;2022-12-18T09:28:26;22.23;;;14.77;;
76377;SDS011;65200;49.500;8.654;2022-12-18T09:30:53;39.35;;;17.88;;
76377;SDS011;65200;49.500;8.654;2022-12-18T09:33:19;30.15;;;14.63;;
76377;SDS011;65200;49.500;8.654;2022-12-18T09:35:46;29.48;;;14.60;;
76377;SDS011;65200;49.500;8.654;2022-12-18T09:38:15;28.77;;;16.90;;
76377;SDS011;65200;49.500;8.654;2022-12-18T09:40:43;20.08;;;13.77;;
76377;SDS011;65200;49.500;8.654;2022-12-18T09:43:13;37.92;;;19.95;;
76377;SDS011;65200;49.500;8.654;2022-12-18T09:45:44;33.05;;;20.98;;
76377;SDS011;65200;49.500;8.654;2022-12-18T09:48:14;31.73;;;15.27;;
76377;SDS011;65200;49.500;8.654;2022-12-18T09:50:46;27.27;;;15.00;;
76377;SDS011;65200;49.500;8.654;2022-12-18T09:53:17;36.10;;;18.33;;
76377;SDS011;65200;49.500;8.654;2022-12-18T09:55:46;38.72;;;17.90;;
76377;SDS011;65200;49.500;8.654;2022-12-18T09:58:15;31.48;;;18.33;;
76377;SDS011;65200;49.500;8.654;2022-12-18T10:00:46;37.40;;;18.40;;
76377;SDS011;65200;49.500;8.654;2022-12-18T10:03:14;39.65;;;19.90;;
76377;SDS011;65200;49.500;8.654;2022-12-18T10:05:43;29.25;;;16.08;;
76377;SDS011;65200;49.500;8.654;2022-12-18T10:08:20;36.70;;;16.83;;
76377;SDS011;65200;49.500;8.654;2022-12-18T10:10:52;37.70;;;17.88;;
76377;SDS011;65200;49.500;8.654;2022-12-18T10:13:21;37.90;;;17.80;;
76377;SDS011;65200;49.500;8.654;2022-12-18T10:15:57;32.80;;;16.42;;
76377;SDS011;65200;49.500;8.654;2022-12-18T10:18:40;44.47;;;23.65;;
76377;SDS011;65200;49.500;8.654;2022-12-18T10:21:28;38.33;;;18.42;;
76377;SDS011;65200;49.500;8.654;2022-12-18T10:24:03;40.25;;;17.30;;
76377;SDS011;65200;49.500;8.654;2022-12-18T10:26:39;30.98;;;16.75;;
76377;SDS011;65200;49.500;8.654;2022-12-18T10:29:08;34.63;;;16.92;;
76377;SDS011;65200;49.500;8.654;2022-12-18T10:31:37;36.75;;;17.42;;
76377;SDS011;65200;49.500;8.654;2022-12-18T10:34:07;32.20;;;16.67;;
76377;SDS011;65200;49.500;8.654;2022-12-18T10:36:35;34.63;;;18.08;;
76377;SDS011;65200;49.500;8.654;2022-12-18T10:39:13;36.92;;;15.95;;
76377;SDS011;65200;49.500;8.654;2022-12-18T10:41:41;37.38;;;17.13;;
76377;SDS011;65200;49.500;8.654;2022-12-18T10:44:12;42.60;;;17.13;;
76377;SDS011;65200;49.500;8.654;2022-12-18T10:46:42;30.30;;;19.55;;
76377;SDS011;65200;49.500;8.654;2022-12-18T10:49:18;40.60;;;18.42;;
76377;SDS011;65200;49.500;8.654;2022-12-18T10:51:47;45.80;;;19.98;;
76377;SDS011;65200;49.500;8.654;2022-12-18T10:54:15;39.28;;;20.05;;
76377;SDS011;65200;49.500;8.654;2022-12-18T10:56:43;38.40;;;18.90;;
76377;SDS011;65200;49.500;8.654;2022-12-18T10:59:10;42.85;;;18.27;;
76377;SDS011;65200;49.500;8.654;2022-12-18T11:01:46;35.15;;;17.77;;
76377;SDS011;65200;49.500;8.654;2022-12-18T11:04:16;40.22;;;20.40;;
76377;SDS011;65200;49.500;8.654;2022-12-18T11:06:52;36.03;;;17.55;;
76377;SDS011;65200;49.500;8.654;2022-12-18T11:09:22;33.17;;;17.40;;
76377;SDS011;65200;49.500;8.654;2022-12-18T11:11:50;40.10;;;22.40;;
76377;SDS011;65200;49.500;8.654;2022-12-18T11:14:20;42.92;;;19.67;;
76377;SDS011;65200;49.500;8.654;2022-12-18T11:16:49;52.08;;;19.88;;
76377;SDS011;65200;49.500;8.654;2022-12-18T11:19:21;41.33;;;22.27;;
76377;SDS011;65200;49.500;8.654;2022-12-18T11:21:54;35.25;;;19.85;;
76377;SDS011;65200;49.500;8.654;2022-12-18T11:24:25;38.58;;;20.38;;
76377;SDS011;65200;49.500;8.654;2022-12-18T11:26:55;42.35;;;21.60;;
76377;SDS011;65200;49.500;8.654;2022-12-18T11:29:23;42.55;;;21.17;;
76377;SDS011;65200;49.500;8.654;2022-12-18T11:35:07;39.70;;;19.95;;
76377;SDS011;65200;49.500;8.654;2022-12-18T11:37:41;40.45;;;19.10;;
76377;SDS011;65200;49.500;8.654;2022-12-18T11:40:15;44.65;;;22.23;;
76377;SDS011;65200;49.500;8.654;2022-12-18T11:42:47;36.17;;;18.65;;
76377;SDS011;65200;49.500;8.654;2022-12-18T11:45:25;50.00;;;21.17;;
76377;SDS011;65200;49.500;8.654;2022-12-18T11:47:56;43.42;;;22.25;;
76377;SDS011;65200;49.500;8.654;2022-12-18T11:50:28;52.28;;;22.63;;
76377;SDS011;65200;49.500;8.654;2022-12-18T11:52:58;40.53;;;19.52;;
76377;SDS011;65200;49.500;8.654;2022-12-18T11:55:28;46.85;;;21.92;;
76377;SDS011;65200;49.500;8.654;2022-12-18T11:58:03;48.60;;;24.73;;
76377;SDS011;65200;49.500;8.654;2022-12-18T12:00:42;52.45;;;25.23;;
76377;SDS011;65200;49.500;8.654;2022-12-18T12:03:20;36.53;;;21.75;;
76377;SDS011;65200;49.500;8.654;2022-12-18T12:06:03;41.85;;;22.63;;
76377;SDS011;65200;49.500;8.654;2022-12-18T12:08:42;42.13;;;20.98;;
76377;SDS011;65200;49.500;8.654;2022-12-18T12:11:22;37.63;;;19.73;;
76377;SDS011;65200;49.500;8.654;2022-12-18T12:14:03;49.53;;;22.10;;
76377;SDS011;65200;49.500;8.654;2022-12-18T12:16:43;41.40;;;21.42;;
76377;SDS011;65200;49.500;8.654;2022-12-18T12:19:20;39.65;;;19.63;;
76377;SDS011;65200;49.500;8.654;2022-12-18T12:21:58;47.22;;;23.65;;
76377;SDS011;65200;49.500;8.654;2022-12-18T12:24:36;49.38;;;23.10;;
76377;SDS011;65200;49.500;8.654;2022-12-18T12:27:15;49.83;;;22.90;;
76377;SDS011;65200;49.500;8.654;2022-12-18T12:29:48;41.92;;;21.02;;
76377;SDS011;65200;49.500;8.654;2022-12-18T12:32:28;48.67;;;26.40;;
76377;SDS011;65200;49.500;8.654;2022-12-18T12:35:08;41.25;;;23.15;;
76377;SDS011;65200;49.500;8.654;2022-12-18T12:37:49;49.03;;;22.05;;
76377;SDS011;65200;49.500;8.654;2022-12-18T12:40:23;51.17;;;23.70;;
76377;SDS011;65200;49.500;8.654;2022-12-18T12:42:54;49.75;;;23.05;;
76377;SDS011;65200;49.500;8.654;2022-12-18T12:45:40;45.83;;;22.77;;
76377;SDS011;65200;49.500;8.654;2022-12-18T12:48:14;46.40;;;22.38;;
76377;SDS011;65200;49.500;8.654;2022-12-18T12:50:45;41.45;;;20.48;;
76377;SDS011;65200;49.500;8.654;2022-12-18T12:53:16;46.08;;;20.80;;
76377;SDS011;65200;49.500;8.654;2022-12-18T12:55:49;42.05;;;20.20;;
76377;SDS011;65200;49.500;8.654;2022-12-18T12:58:20;44.83;;;20.75;;
76377;SDS011;65200;49.500;8.654;2022-12-18T13:00:57;54.25;;;25.13;;
76377;SDS011;65200;49.500;8.654;2022-12-18T13:03:34;46.65;;;21.05;;
76377;SDS011;65200;49.500;8.654;2022-12-18T13:06:08;39.70;;;21.50;;
76377;SDS011;65200;49.500;8.654;2022-12-18T13:08:53;38.15;;;22.02;;
76377;SDS011;65200;49.500;8.654;2022-12-18T13:11:32;38.30;;;19.20;;
76377;SDS011;65200;49.500;8.654;2022-12-18T13:14:21;47.97;;;20.75;;
76377;SDS011;65200;49.500;8.654;2022-12-18T13:16:50;39.25;;;20.52;;
76377;SDS011;65200;49.500;8.654;2022-12-18T13:19:21;33.85;;;19.10;;
76377;SDS011;65200;49.500;8.654;2022-12-18T13:21:52;36.45;;;22.10;;
76377;SDS011;65200;49.500;8.654;2022-12-18T13:24:23;40.47;;;20.85;;
76377;SDS011;65200;49.500;8.654;2022-12-18T13:26:52;37.10;;;20.88;;
76377;SDS011;65200;49.500;8.654;2022-12-18T13:32:19;38.95;;;21.30;;
76377;SDS011;65200;49.500;8.654;2022-12-18T13:34:46;43.05;;;23.25;;
76377;SDS011;65200;49.500;8.654;2022-12-18T13:43:15;48.30;;;23.50;;
76377;SDS011;65200;49.500;8.654;2022-12-18T13:45:58;56.03;;;24.38;;
76377;SDS011;65200;49.500;8.654;2022-12-18T13:48:27;46.63;;;24.17;;
76377;SDS011;65200;49.500;8.654;2022-12-18T13:50:56;55.00;;;24.98;;
76377;SDS011;65200;49.500;8.654;2022-12-18T13:53:28;47.30;;;26.40;;
76377;SDS011;65200;49.500;8.654;2022-12-18T13:55:59;50.92;;;23.27;;
76377;SDS011;65200;49.500;8.654;2022-12-18T13:58:25;48.75;;;22.60;;
76377;SDS011;65200;49.500;8.654;2022-12-18T14:00:53;41.53;;;22.60;;
76377;SDS011;65200;49.500;8.654;2022-12-18T14:03:21;46.20;;;23.60;;
76377;SDS011;65200;49.500;8.654;2022-12-18T14:05:54;44.13;;;22.67;;
76377;SDS011;65200;49.500;8.654;2022-12-18T14:08:24;47.95;;;23.77;;
76377;SDS011;65200;49.500;8.654;2022-12-18T14:10:55;42.20;;;18.98;;
76377;SDS011;65200;49.500;8.654;2022-12-18T14:13:24;44.22;;;22.90;;
76377;SDS011;65200;49.500;8.654;2022-12-18T14:15:55;35.35;;;19.60;;
76377;SDS011;65200;49.500;8.654;2022-12-18T14:18:23;33.25;;;20.05;;
76377;SDS011;65200;49.500;8.654;2022-12-18T14:20:51;49.10;;;23.58;;
76377;SDS011;65200;49.500;8.654;2022-12-18T14:23:25;46.15;;;24.88;;
76377;SDS011;65200;49.500;8.654;2022-12-18T14:25:54;43.50;;;24.17;;
76377;SDS011;65200;49.500;8.654;2022-12-18T14:28:20;51.35;;;25.95;;
76377;SDS011;65200;49.500;8.654;2022-12-18T14:30:48;48.97;;;24.27;;
76377;SDS011;65200;49.500;8.654;2022-12-18T14:33:17;47.22;;;23.70;;
76377;SDS011;65200;49.500;8.654;2022-12-18T14:35:52;60.80;;;28.30;;
76377;SDS011;65200;49.500;8.654;2022-12-18T14:38:22;39.35;;;21.00;;
76377;SDS011;65200;49.500;8.654;2022-12-18T14:40:59;52.35;;;25.15;;
76377;SDS011;65200;49.500;8.654;2022-12-18T14:43:28;59.72;;;26.13;;
76377;SDS011;65200;49.500;8.654;2022-12-18T14:45:57;52.72;;;25.02;;
76377;SDS011;65200;49.500;8.654;2022-12-18T14:48:33;54.13;;;24.20;;
76377;SDS011;65200;49.500;8.654;2022-12-18T14:51:02;47.65;;;24.25;;
76377;SDS011;65200;49.500;8.654;2022-12-18T14:53:35;51.78;;;25.73;;
76377;SDS011;65200;49.500;8.654;2022-12-18T14:56:03;42.42;;;25.13;;